Time;durP1;ratioP1;P1;durP2;ratioP2;P2;SDS_P1;SDS_P2;PMS_P1;PMS_P2;Temp;Humidity;BMP_temperature;BMP_pressure;BME280_temperature;BME280_humidity;BME280_pressure;Samples;Min_cycle;Max_cycle;Signal;HPM_P1;HPM_P2
2023/01/26 00:04:58;;;;;;;1999.90;999.90;;;;;;;-1.13;100.00;102495.88;10417974;28;20054;-66
2023/01/26 00:10:00;;;;;;;1999.90;999.90;;;;;;;-0.88;100.00;102483.44;10416307;28;20045;-66
2023/01/26 00:15:03;;;;;;;1999.90;999.90;;;;;;;-1.01;100.00;102479.81;10417530;28;20049;-66
2023/01/26 00:20:06;;;;;;;1999.90;999.90;;;;;;;-1.08;100.00;102471.94;10416583;28;20053;-66
2023/01/26 00:25:09;;;;;;;1999.90;999.90;;;;;;;-0.90;100.00;102471.41;10415720;28;20057;-66
2023/01/26 00:30:11;;;;;;;1999.90;999.90;;;;;;;-1.12;100.00;102459.03;10398918;28;20041;-66
2023/01/26 00:35:14;;;;;;;1999.90;999.90;;;;;;;-0.93;100.00;102449.91;10416959;28;20497;-66
2023/01/26 00:40:17;;;;;;;1999.90;999.90;;;;;;;-0.80;100.00;102450.13;10415139;28;20087;-66
2023/01/26 00:45:20;;;;;;;1999.90;999.90;;;;;;;-1.09;100.00;102442.81;10398940;28;20053;-66
2023/01/26 00:50:22;;;;;;;1999.90;999.90;;;;;;;-1.14;100.00;102435.00;10399332;28;20045;-66
2023/01/26 00:55:31;;;;;;;1999.90;999.90;;;;;;;-0.90;100.00;102443.97;10414375;28;20057;-66
2023/01/26 01:00:35;;;;;;;1999.90;999.90;;;;;;;-1.37;100.00;102432.00;10415818;28;20531;-66
2023/01/26 01:05:37;;;;;;;1999.90;999.90;;;;;;;-1.26;100.00;102421.06;10398354;28;20085;-66
2023/01/26 01:10:40;;;;;;;1999.90;999.90;;;;;;;-0.68;100.00;102427.16;10414569;28;20041;-66
2023/01/26 01:15:42;;;;;;;1999.90;999.90;;;;;;;-0.81;100.00;102426.13;10398033;28;20060;-66
2023/01/26 01:20:44;;;;;;;1999.90;999.90;;;;;;;-0.69;100.00;102422.88;10397425;28;20053;-66
2023/01/26 01:25:55;;;;;;;1999.90;999.90;;;;;;;-0.57;100.00;102414.47;10413074;28;20450;-66
2023/01/26 01:30:57;;;;;;;1999.90;999.90;;;;;;;-0.79;100.00;102419.31;10397278;28;20056;-66
2023/01/26 01:36:02;;;;;;;1999.90;999.90;;;;;;;-0.95;100.00;102427.59;10414794;28;20061;-66
2023/01/26 01:41:04;;;;;;;1999.90;999.90;;;;;;;-0.81;100.00;102417.53;10397634;28;20049;-66
2023/01/26 01:46:31;;;;;;;1999.90;999.90;;;;;;;-0.83;100.00;102424.38;10403449;28;20053;-66
2023/01/26 01:51:35;;;;;;;1999.90;999.90;;;;;;;-0.95;100.00;102427.59;10364350;28;20052;-66
2023/01/26 01:56:41;;;;;;;1999.90;999.90;;;;;;;-0.96;100.00;102416.47;10404844;28;20095;-66
2023/01/26 02:01:43;;;;;;;1999.90;999.90;;;;;;;-0.73;100.00;102404.81;10420738;28;20041;-66
2023/01/26 02:06:49;;;;;;;1999.90;999.90;;;;;;;-0.93;100.00;102406.19;10421541;28;20140;-66
2023/01/26 02:11:51;;;;;;;1999.90;999.90;;;;;;;-0.68;100.00;102404.03;10404138;28;20072;-66
2023/01/26 02:16:53;;;;;;;1999.90;999.90;;;;;;;-0.89;100.00;102398.53;10404638;28;20103;-66
2023/01/26 02:21:58;;;;;;;1999.90;999.90;;;;;;;-1.08;100.00;102394.81;10403423;28;20075;-66
2023/01/26 02:27:00;;;;;;;1999.90;999.90;;;;;;;-0.85;100.00;102384.91;10401416;28;20050;-66
2023/01/26 02:32:03;;;;;;;1999.90;999.90;;;;;;;-0.92;100.00;102381.38;10419890;28;20100;-66
2023/01/26 02:37:11;;;;;;;1999.90;999.90;;;;;;;-1.08;100.00;102387.09;10420917;28;20062;-66
2023/01/26 02:47:35;;;;;;;1999.90;999.90;;;;;;;-0.82;100.00;102385.81;10420308;28;20046;-66
2023/01/26 02:52:38;;;;;;;1999.90;999.90;;;;;;;-0.98;100.00;102382.13;10419241;28;20060;-66
2023/01/26 02:57:40;;;;;;;1999.90;999.90;;;;;;;-0.81;100.00;102381.53;10420564;28;20054;-66
2023/01/26 03:02:43;;;;;;;1999.90;999.90;;;;;;;-0.77;100.00;102373.88;10419087;28;20104;-66
2023/01/26 03:07:46;;;;;;;1999.90;999.90;;;;;;;-0.71;100.00;102377.38;10416020;28;20481;-66
2023/01/26 03:12:48;;;;;;;1999.90;999.90;;;;;;;-0.51;100.00;102380.25;10418962;28;20053;-66
2023/01/26 03:17:50;;;;;;;1999.90;999.90;;;;;;;-0.56;100.00;102378.47;10401016;28;20053;-66
2023/01/26 03:28:14;;;;;;;1999.90;999.90;;;;;;;-0.38;100.00;102382.16;10404123;28;20049;-66
2023/01/26 03:33:17;;;;;;;1999.90;999.90;;;;;;;-0.22;100.00;102385.78;10417786;28;20104;-66
2023/01/26 03:38:19;;;;;;;1999.90;999.90;;;;;;;-0.51;100.00;102375.97;10417771;28;20049;-66
2023/01/26 03:59:36;;;;;;;1999.90;999.90;;;;;;;-0.52;100.00;102370.78;10403348;28;20049;-66
2023/01/26 04:10:00;;;;;;;1999.90;999.90;;;;;;;-0.42;100.00;102376.09;10416809;28;20053;-66
2023/01/26 04:25:44;;;;;;;1999.90;999.90;;;;;;;-0.21;100.00;102375.50;10410380;28;20053;-67
2023/01/26 04:30:46;;;;;;;1999.90;999.90;;;;;;;0.01;100.00;102385.22;10416105;28;20052;-68
2023/01/26 04:35:48;;;;;;;1999.90;999.90;;;;;;;-0.02;100.00;102386.03;10399028;28;20064;-67
2023/01/26 04:40:54;;;;;;;1999.90;999.90;;;;;;;-0.17;100.00;102373.81;10397983;28;20046;-68
2023/01/26 04:46:04;;;;;;;1999.90;999.90;;;;;;;0.16;100.00;102375.94;10414446;28;20404;-68
2023/01/26 04:51:12;;;;;;;1999.90;999.90;;;;;;;0.20;100.00;102370.81;10427212;23;20053;-68
2023/01/26 04:56:22;;;;;;;1999.90;999.90;;;;;;;-0.18;100.00;102369.53;10439031;28;20404;-68
2023/01/26 05:01:25;;;;;;;1999.90;999.90;;;;;;;-0.20;100.00;102368.66;10439049;28;20049;-68
2023/01/26 05:06:27;;;;;;;1999.90;999.90;;;;;;;-0.12;100.00;102363.59;10439301;28;20098;-68
2023/01/26 05:11:30;;;;;;;1999.90;999.90;;;;;;;-0.07;100.00;102361.94;10455275;28;20048;-68
2023/01/26 05:16:32;;;;;;;1999.90;999.90;;;;;;;0.05;100.00;102353.47;10454552;28;20122;-68
2023/01/26 05:21:34;;;;;;;1999.90;999.90;;;;;;;0.08;100.00;102356.94;10455855;28;20049;-68
2023/01/26 05:26:37;;;;;;;1999.90;999.90;;;;;;;0.25;100.00;102364.00;10438068;28;20048;-68
2023/01/26 05:31:40;;;;;;;1999.90;999.90;;;;;;;0.14;100.00;102356.19;10447860;28;20048;-69
2023/01/26 05:36:42;;;;;;;1999.90;999.90;;;;;;;0.14;100.00;102363.91;10453076;28;20408;-69
2023/01/26 05:41:44;;;;;;;1999.90;999.90;;;;;;;0.17;100.00;102359.66;10455032;28;20049;-69
2023/01/26 05:46:47;;;;;;;1999.90;999.90;;;;;;;-0.18;100.00;102354.09;10454454;28;20064;-69
2023/01/26 05:51:49;;;;;;;1999.90;999.90;;;;;;;0.18;100.00;102360.50;10454798;28;20064;-69
2023/01/26 05:56:56;;;;;;;1999.90;999.90;;;;;;;0.05;100.00;102358.63;10453494;28;20045;-69
2023/01/26 06:01:59;;;;;;;1999.90;999.90;;;;;;;0.26;100.00;102358.00;10455291;28;20496;-69
2023/01/26 06:07:02;;;;;;;1999.90;999.90;;;;;;;0.09;100.00;102363.00;10453714;28;20152;-69
2023/01/26 06:12:04;;;;;;;1999.90;999.90;;;;;;;0.21;100.00;102357.09;10455099;28;20098;-69
2023/01/26 06:17:07;;;;;;;1999.90;999.90;;;;;;;0.51;100.00;102366.84;10446647;28;20052;-68
2023/01/26 06:22:13;;;;;;;1999.90;999.90;;;;;;;0.48;100.00;102370.25;10447839;28;20044;-68
2023/01/26 06:27:17;;;;;;;1999.90;999.90;;;;;;;0.61;100.00;102365.25;10475826;28;20056;-69
2023/01/26 06:32:19;;;;;;;1999.90;999.90;;;;;;;0.51;100.00;102357.41;10503736;28;20044;-68
2023/01/26 06:37:22;;;;;;;1999.90;999.90;;;;;;;0.13;100.00;102370.75;10467905;28;20060;-68
2023/01/26 06:42:24;;;;;;;1999.90;999.90;;;;;;;0.35;100.00;102374.44;10461762;28;20546;-68
2023/01/26 06:47:26;;;;;;;1999.90;999.90;;;;;;;0.42;100.00;102382.22;10456490;28;20510;-69
2023/01/26 06:52:32;;;;;;;1999.90;999.90;;;;;;;0.62;100.00;102374.69;10461411;28;20053;-68
2023/01/26 06:57:34;;;;;;;1999.90;999.90;;;;;;;0.39;100.00;102377.03;10483447;28;20056;-68
2023/01/26 07:02:37;;;;;;;1999.90;999.90;;;;;;;0.49;100.00;102382.31;10502559;28;20590;-68
2023/01/26 07:07:39;;;;;;;1999.90;999.90;;;;;;;0.63;100.00;102377.28;10497455;28;20491;-68
2023/01/26 07:12:43;;;;;;;1999.90;999.90;;;;;;;0.39;100.00;102383.06;10502168;28;20441;-68
2023/01/26 07:17:45;;;;;;;1999.90;999.90;;;;;;;0.45;100.00;102384.81;10498317;28;20048;-69
2023/01/26 07:22:48;;;;;;;1999.90;999.90;;;;;;;0.33;100.00;102394.16;10502388;28;20051;-68
2023/01/26 07:27:56;;;;;;;1999.90;999.90;;;;;;;0.11;100.00;102405.06;10463310;28;20052;-69
2023/01/26 07:32:59;;;;;;;1999.90;999.90;;;;;;;0.31;100.00;102402.72;10460588;28;20052;-68
2023/01/26 07:38:05;;;;;;;1999.90;999.90;;;;;;;0.39;100.00;102410.53;10457262;28;20132;-68
2023/01/26 07:43:07;;;;;;;1999.90;999.90;;;;;;;0.41;100.00;102403.69;10459411;28;20053;-68
2023/01/26 07:48:09;;;;;;;1999.90;999.90;;;;;;;0.52;100.00;102404.66;10459702;28;20056;-68
2023/01/26 07:53:14;;;;;;;1999.90;999.90;;;;;;;0.83;100.00;102394.66;10459596;28;20503;-68
2023/01/26 07:58:19;;;;;;;1999.90;999.90;;;;;;;0.60;100.00;102403.00;10453540;28;20059;-68
2023/01/26 08:03:23;;;;;;;1999.90;999.90;;;;;;;0.65;100.00;102414.22;10459652;28;20071;-68
2023/01/26 08:08:26;;;;;;;1999.90;999.90;;;;;;;0.79;100.00;102413.50;10447897;28;20412;-68
2023/01/26 08:13:30;;;;;;;1999.90;999.90;;;;;;;0.78;100.00;102402.34;10458452;28;20079;-69
2023/01/26 08:18:41;;;;;;;1999.90;999.90;;;;;;;0.78;100.00;102416.94;10458186;28;20442;-69
2023/01/26 08:23:52;;;;;;;1999.90;999.90;;;;;;;0.83;100.00;102416.13;10464439;28;20055;-69
2023/01/26 08:28:54;;;;;;;1999.90;999.90;;;;;;;0.98;100.00;102419.72;10482047;28;20079;-69
2023/01/26 08:33:57;;;;;;;1999.90;999.90;;;;;;;1.02;100.00;102409.41;10467779;28;20055;-69
2023/01/26 08:39:01;;;;;;;1999.90;999.90;;;;;;;0.99;100.00;102421.41;10480071;28;20056;-69
2023/01/26 08:44:03;;;;;;;1999.90;999.90;;;;;;;0.89;100.00;102420.47;10457687;28;20052;-69
2023/01/26 08:49:06;;;;;;;1999.90;999.90;;;;;;;1.11;100.00;102424.13;10457326;28;20103;-69
2023/01/26 08:54:08;;;;;;;1999.90;999.90;;;;;;;1.04;100.00;102433.53;10454070;28;20099;-69
2023/01/26 08:59:11;;;;;;;1999.90;999.90;;;;;;;0.80;100.00;102434.16;10455447;28;20052;-69
2023/01/26 09:04:13;;;;;;;1999.90;999.90;;;;;;;1.08;100.00;102431.81;10465059;28;20111;-69
2023/01/26 09:09:15;;;;;;;1999.90;999.90;;;;;;;0.93;100.00;102428.25;10480016;28;20045;-69
2023/01/26 09:14:18;;;;;;;1999.90;999.90;;;;;;;1.03;100.00;102436.94;10455663;28;20059;-69
2023/01/26 09:19:20;;;;;;;1999.90;999.90;;;;;;;1.15;100.00;102435.31;10454872;28;20048;-69
2023/01/26 09:24:22;;;;;;;1999.90;999.90;;;;;;;1.16;100.00;102434.44;10453865;28;20059;-69
2023/01/26 09:29:25;;;;;;;1999.90;999.90;;;;;;;1.08;100.00;102443.00;10441448;28;20480;-69
2023/01/26 09:34:27;;;;;;;1999.90;999.90;;;;;;;1.43;100.00;102441.53;10450723;28;20110;-69
2023/01/26 09:39:30;;;;;;;1999.90;999.90;;;;;;;1.39;100.00;102450.13;10429677;28;20052;-69
2023/01/26 09:44:41;;;;;;;1999.90;999.90;;;;;;;1.38;100.00;102454.44;10414394;28;20060;-69
2023/01/26 09:49:45;;;;;;;1999.90;999.90;;;;;;;1.15;100.00;102451.66;10445071;28;20081;-69
2023/01/26 09:54:53;;;;;;;1999.90;999.90;;;;;;;1.15;100.00;102450.81;10443945;28;20102;-69
2023/01/26 09:59:57;;;;;;;1999.90;999.90;;;;;;;1.35;100.00;102445.81;10422448;28;20049;-69
2023/01/26 10:05:22;;;;;;;1999.90;999.90;;;;;;;1.30;100.00;102438.88;10458630;28;20063;-69
2023/01/26 10:10:35;;;;;;;1999.90;999.90;;;;;;;1.25;100.00;102445.72;10451494;28;20052;-69
2023/01/26 10:15:41;;;;;;;1999.90;999.90;;;;;;;1.58;100.00;102449.41;10444956;28;20052;-70
2023/01/26 10:20:52;;;;;;;1999.90;999.90;;;;;;;1.72;100.00;102446.91;10463332;28;20045;-70
2023/01/26 10:26:20;;;;;;;1999.90;999.90;;;;;;;1.91;100.00;102440.09;10462631;28;20406;-70
2023/01/26 10:31:31;;;;;;;1999.90;999.90;;;;;;;1.99;100.00;102443.59;10445524;28;20072;-70
2023/01/26 10:36:34;;;;;;;1999.90;999.90;;;;;;;1.90;100.00;102453.00;10462995;28;20060;-69
2023/01/26 10:41:38;;;;;;;1999.90;999.90;;;;;;;2.03;100.00;102452.22;10463156;28;20139;-69
2023/01/26 10:46:41;;;;;;;1999.90;999.90;;;;;;;2.04;100.00;102457.41;10444822;28;20060;-69
2023/01/26 10:52:03;;;;;;;1999.90;999.90;;;;;;;2.23;100.00;102450.56;10428113;28;20052;-69
2023/01/26 10:57:27;;;;;;;1999.90;999.90;;;;;;;2.65;100.00;102460.19;10501918;28;20052;-69
2023/01/26 11:02:30;;;;;;;1999.90;999.90;;;;;;;2.49;100.00;102449.81;10484995;28;20044;-69
2023/01/26 11:07:38;;;;;;;1999.90;999.90;;;;;;;2.95;100.00;102443.84;10476674;28;20147;-69
2023/01/26 11:12:41;;;;;;;1999.90;999.90;;;;;;;2.93;100.00;102445.59;10460327;28;20041;-69
2023/01/26 11:17:59;;;;;;;1999.90;999.90;;;;;;;3.23;100.00;102443.84;10460245;28;20049;-68
2023/01/26 11:23:11;;;;;;;1999.90;999.90;;;;;;;3.40;100.00;102446.44;10449596;28;20045;-69
2023/01/26 11:28:58;;;;;;;1999.90;999.90;;;;;;;3.42;100.00;102442.97;10454104;28;20042;-68
2023/01/26 11:34:28;;;;;;;1999.90;999.90;;;;;;;3.66;100.00;102448.97;10446030;28;20045;-68
2023/01/26 11:39:40;;;;;;;1999.90;999.90;;;;;;;3.83;100.00;102448.94;10443703;28;20081;-68
2023/01/26 11:45:00;;;;;;;1999.90;999.90;;;;;;;4.00;100.00;102442.00;10432474;28;20061;-68
2023/01/26 11:50:19;;;;;;;1999.90;999.90;;;;;;;4.17;100.00;102447.09;10400503;28;20053;-68
2023/01/26 11:55:30;;;;;;;1999.90;999.90;;;;;;;4.41;100.00;102440.06;10418562;28;20049;-68
2023/01/26 12:00:43;;;;;;;1999.90;999.90;;;;;;;4.52;100.00;102425.28;10400112;28;20439;-68
2023/01/26 12:05:51;;;;;;;1999.90;999.90;;;;;;;4.77;100.00;102426.00;10418106;28;20057;-68
2023/01/26 12:16:52;;;;;;;1999.90;999.90;;;;;;;5.69;100.00;102403.53;10400488;28;20053;-69
2023/01/26 12:22:05;;;;;;;;;;;;;;;5.39;100.00;102397.78;10401849;28;20050;-68
2023/01/26 12:27:24;;;;;;;1999.90;999.90;;;;;;;5.86;100.00;102390.31;10398574;28;20340;-69
2023/01/26 12:32:27;;;;;;;1999.90;999.90;;;;;;;5.70;100.00;102387.06;10399217;28;20404;-69
2023/01/26 12:37:34;;;;;;;1999.90;999.90;;;;;;;5.94;100.00;102374.66;10417029;28;20057;-69
2023/01/26 12:43:04;;;;;;;1999.90;999.90;;;;;;;5.98;100.00;102365.94;10422273;28;20048;-69
2023/01/26 12:48:32;;;;;;;1999.90;999.90;;;;;;;6.46;100.00;102353.13;10417349;28;20377;-69
2023/01/26 12:53:56;;;;;;;1999.90;999.90;;;;;;;6.58;100.00;102338.22;10454825;28;20048;-69
2023/01/26 12:59:00;;;;;;;1999.90;999.90;;;;;;;6.46;100.00;102336.69;10454718;28;20508;-69
2023/01/26 13:04:10;;;;;;;1999.90;999.90;;;;;;;6.30;100.00;102338.63;10455856;28;20045;-69
2023/01/26 13:09:18;;;;;;;1999.90;999.90;;;;;;;6.42;100.00;102335.88;10457841;28;20056;-69
2023/01/26 13:14:30;;;;;;;1999.90;999.90;;;;;;;6.65;100.00;102329.44;10457081;28;20060;-69
2023/01/26 13:19:42;;;;;;;1999.90;999.90;;;;;;;6.72;100.00;102333.63;10439472;28;20049;-69
2023/01/26 13:24:46;;;;;;;1999.90;999.90;;;;;;;6.74;100.00;102331.00;10456834;28;20053;-69
2023/01/26 13:29:55;;;;;;;1999.90;999.90;;;;;;;6.49;100.00;102326.22;10439063;28;20052;-69
2023/01/26 13:34:59;;;;;;;1999.90;999.90;;;;;;;6.79;100.00;102318.78;10456542;28;20056;-69
2023/01/26 13:40:06;;;;;;;1999.90;999.90;;;;;;;7.25;100.00;102317.97;10462507;28;20091;-69
2023/01/26 13:45:17;;;;;;;1999.90;999.90;;;;;;;7.06;100.00;102320.91;10464859;28;20060;-69
2023/01/26 13:50:32;;;;;;;1999.90;999.90;;;;;;;6.94;100.00;102323.72;10446600;28;20052;-69
2023/01/26 13:55:34;;;;;;;1999.90;999.90;;;;;;;6.97;100.00;102318.44;10430388;28;20048;-69
2023/01/26 14:00:37;;;;;;;1999.90;999.90;;;;;;;7.60;100.00;102324.22;10464193;28;20045;-69
2023/01/26 14:05:39;;;;;;;1999.90;999.90;;;;;;;6.94;100.00;102312.44;10446359;28;20056;-69
2023/01/26 14:10:42;;;;;;;1999.90;999.90;;;;;;;6.56;100.00;102321.78;10445652;28;20103;-69
2023/01/26 14:15:45;;;;;;;1999.90;999.90;;;;;;;6.68;100.00;102316.38;10446296;28;20048;-69
2023/01/26 14:20:47;;;;;;;1999.90;999.90;;;;;;;6.70;100.00;102320.66;10445583;28;20128;-69
2023/01/26 14:26:04;;;;;;;1999.90;999.90;;;;;;;6.67;100.00;102325.94;10463370;28;20048;-69
2023/01/26 14:31:22;;;;;;;1999.90;999.90;;;;;;;7.10;100.00;102313.88;10445496;28;20053;-69
2023/01/26 14:36:28;;;;;;;1999.90;999.90;;;;;;;7.03;100.00;102323.56;10444692;28;20071;-69
2023/01/26 14:41:33;;;;;;;1999.90;999.90;;;;;;;7.14;100.00;102320.75;10444426;28;20059;-69
2023/01/26 14:46:50;;;;;;;1999.90;999.90;;;;;;;7.02;100.00;102334.84;10444684;28;20076;-69
2023/01/26 14:51:56;;;;;;;1999.90;999.90;;;;;;;6.86;100.00;102331.69;10461074;28;20053;-69
2023/01/26 14:56:59;;;;;;;1999.90;999.90;;;;;;;6.84;100.00;102327.38;10461558;28;20606;-69
2023/01/26 15:02:08;;;;;;;1999.90;999.90;;;;;;;6.92;100.00;102327.25;10444115;28;20045;-70
2023/01/26 15:07:33;;;;;;;1999.90;999.90;;;;;;;6.36;100.00;102327.31;10444110;28;20053;-69
2023/01/26 15:12:35;;;;;;;1999.90;999.90;;;;;;;6.35;100.00;102336.81;10461491;28;20048;-69
2023/01/26 15:17:40;;;;;;;1999.90;999.90;;;;;;;6.55;100.00;102335.66;10443695;28;20095;-69
2023/01/26 15:22:51;;;;;;;1999.90;999.90;;;;;;;6.44;100.00;102336.69;10442783;28;20503;-69
2023/01/26 15:27:58;;;;;;;1999.90;999.90;;;;;;;6.36;100.00;102328.16;10443326;28;20052;-69
2023/01/26 15:33:00;;;;;;;1999.90;999.90;;;;;;;6.36;100.00;102327.31;10443107;28;20060;-69
2023/01/26 15:38:05;;;;;;;1999.90;999.90;;;;;;;6.21;100.00;102331.84;10442224;28;20127;-69
2023/01/26 15:43:11;;;;;;;1999.90;999.90;;;;;;;6.07;100.00;102321.63;10459592;28;20045;-70
2023/01/26 15:48:13;;;;;;;1999.90;999.90;;;;;;;6.01;100.00;102331.25;10442497;28;20095;-70
2023/01/26 15:53:20;;;;;;;1999.90;999.90;;;;;;;5.91;100.00;102330.50;10459755;28;20053;-70
2023/01/26 15:58:23;;;;;;;1999.90;999.90;;;;;;;6.04;100.00;102323.44;10459072;28;20053;-69
2023/01/26 16:03:26;;;;;;;1999.90;999.90;;;;;;;6.16;100.00;102331.03;10458061;28;20549;-69
2023/01/26 16:08:29;;;;;;;1999.90;999.90;;;;;;;6.22;100.00;102325.75;10459373;28;20045;-70
2023/01/26 16:13:32;;;;;;;1999.90;999.90;;;;;;;5.94;100.00;102335.66;10458407;28;20049;-69
2023/01/26 16:18:35;;;;;;;1999.90;999.90;;;;;;;5.92;100.00;102350.41;10458287;28;20408;-70
2023/01/26 16:23:37;;;;;;;1999.90;999.90;;;;;;;5.95;100.00;102351.22;10458630;28;20045;-69
2023/01/26 16:28:40;;;;;;;1999.90;999.90;;;;;;;5.97;100.00;102360.75;10458086;28;20106;-69
2023/01/26 16:33:43;;;;;;;1999.90;999.90;;;;;;;5.88;100.00;102359.13;10434445;28;20053;-69
2023/01/26 16:38:46;;;;;;;1999.90;999.90;;;;;;;5.85;100.00;102340.97;10458497;28;20077;-70
2023/01/26 16:43:48;;;;;;;1999.90;999.90;;;;;;;5.97;100.00;102360.75;10436730;28;20052;-70
2023/01/26 16:48:51;;;;;;;1999.90;999.90;;;;;;;5.90;100.00;102357.34;10457725;28;20056;-69
2023/01/26 16:53:54;;;;;;;1999.90;999.90;;;;;;;5.95;100.00;102361.63;10439240;28;20492;-69
2023/01/26 16:58:56;;;;;;;1999.90;999.90;;;;;;;5.81;100.00;102360.94;10440987;28;20057;-69
2023/01/26 17:04:00;;;;;;;1999.90;999.90;;;;;;;5.83;100.00;102366.97;10464504;23;20094;-66
2023/01/26 17:09:03;;;;;;;1999.90;999.90;;;;;;;5.71;100.00;102373.19;10445800;28;20052;-66
2023/01/26 17:14:06;;;;;;;1999.90;999.90;;;;;;;5.68;100.00;102367.16;10456073;28;20407;-66
2023/01/26 17:19:08;;;;;;;1999.90;999.90;;;;;;;5.60;100.00;102369.88;10456994;28;20127;-66
2023/01/26 17:24:10;;;;;;;1999.90;999.90;;;;;;;5.66;100.00;102374.13;10486588;28;20044;-67
2023/01/26 17:29:13;;;;;;;1999.90;999.90;;;;;;;5.75;100.00;102371.44;10472377;28;20053;-66
2023/01/26 17:34:15;;;;;;;1999.90;999.90;;;;;;;5.63;100.00;102375.03;10455550;28;20041;-66
2023/01/26 17:39:18;;;;;;;1999.90;999.90;;;;;;;5.61;100.00;102368.97;10456470;28;20049;-66
2023/01/26 17:44:20;;;;;;;1999.90;999.90;;;;;;;5.49;100.00;102382.09;10456916;28;20049;-66
2023/01/26 17:49:23;;;;;;;1999.90;999.90;;;;;;;5.78;100.00;102366.16;10454546;28;20443;-66
2023/01/26 17:54:26;;;;;;;1999.90;999.90;;;;;;;5.63;100.00;102372.44;10457418;28;20053;-66
2023/01/26 17:59:28;;;;;;;1999.90;999.90;;;;;;;5.63;100.00;102376.75;10465343;28;20052;-66
2023/01/26 18:04:31;;;;;;;1999.90;999.90;;;;;;;5.68;100.00;102372.34;10455058;28;20400;-66
2023/01/26 18:09:34;;;;;;;1999.90;999.90;;;;;;;5.59;100.00;102375.94;10457010;28;20103;-66
2023/01/26 18:14:36;;;;;;;1999.90;999.90;;;;;;;5.50;100.00;102371.69;10457410;28;20435;-66
2023/01/26 18:19:38;;;;;;;1999.90;999.90;;;;;;;5.65;100.00;102367.19;10441456;28;20098;-66
2023/01/26 18:24:41;;;;;;;1999.90;999.90;;;;;;;5.49;100.00;102361.31;10469525;28;20052;-66
2023/01/26 18:29:43;;;;;;;1999.90;999.90;;;;;;;5.53;100.00;102348.28;10444592;28;20072;-66
2023/01/26 18:34:46;;;;;;;1999.90;999.90;;;;;;;5.29;100.00;102354.59;10462442;28;20052;-66
2023/01/26 18:39:48;;;;;;;1999.90;999.90;;;;;;;5.53;100.00;102352.59;10462258;28;20377;-66
2023/01/26 18:44:50;;;;;;;1999.90;999.90;;;;;;;5.42;100.00;102349.28;10462612;28;20053;-66
2023/01/26 18:49:53;;;;;;;1999.90;999.90;;;;;;;5.45;100.00;102352.72;10461868;28;20438;-67
2023/01/26 18:54:55;;;;;;;1999.90;999.90;;;;;;;5.59;100.00;102352.53;10462325;28;20060;-66
2023/01/26 18:59:57;;;;;;;1999.90;999.90;;;;;;;5.33;100.00;102361.50;10462070;28;20118;-66
2023/01/26 19:05:00;;;;;;;1999.90;999.90;;;;;;;5.44;100.00;102360.50;10461100;28;20480;-66
2023/01/26 19:10:03;;;;;;;1999.90;999.90;;;;;;;5.47;100.00;102371.72;10444053;28;20065;-66
2023/01/26 19:15:06;;;;;;;1999.90;999.90;;;;;;;5.20;100.00;102370.28;10461553;28;20049;-66
2023/01/26 19:20:11;;;;;;;1999.90;999.90;;;;;;;5.28;100.00;102371.06;10461269;28;20056;-66
2023/01/26 19:25:13;;;;;;;1999.90;999.90;;;;;;;5.27;100.00;102373.69;10459401;28;20531;-66
2023/01/26 19:30:16;;;;;;;1999.90;999.90;;;;;;;5.46;100.00;102366.53;10443264;28;20057;-66
2023/01/26 19:35:20;;;;;;;1999.90;999.90;;;;;;;5.54;100.00;102362.97;10459605;28;20052;-66
2023/01/26 19:40:22;;;;;;;1999.90;999.90;;;;;;;5.59;100.00;102370.72;10460430;28;20059;-66
2023/01/26 19:45:28;;;;;;;1999.90;999.90;;;;;;;5.25;100.00;102371.09;10459840;28;20128;-66
2023/01/26 19:50:30;;;;;;;1999.90;999.90;;;;;;;5.34;100.00;102373.59;10459371;28;20482;-66
2023/01/26 19:55:33;;;;;;;1999.90;999.90;;;;;;;5.38;100.00;102374.44;10459352;28;20496;-66
2023/01/26 20:00:35;;;;;;;1999.90;999.90;;;;;;;5.37;100.00;102376.16;10457845;28;20041;-66
2023/01/26 20:05:38;;;;;;;1999.90;999.90;;;;;;;5.42;100.00;102377.84;10458787;28;20451;-66
2023/01/26 20:10:40;;;;;;;1999.90;999.90;;;;;;;5.37;100.00;102373.56;10459406;28;20040;-66
2023/01/26 20:15:43;;;;;;;1999.90;999.90;;;;;;;5.43;100.00;102371.78;10441931;28;20057;-66
2023/01/26 20:20:51;;;;;;;1999.90;999.90;;;;;;;5.31;100.00;102380.53;10458624;28;20045;-66
2023/01/26 20:26:09;;;;;;;1999.90;999.90;;;;;;;5.21;100.00;102391.03;10456986;28;20420;-66
2023/01/26 20:31:17;;;;;;;1999.90;999.90;;;;;;;5.41;100.00;102379.56;10456732;28;20412;-66
2023/01/26 20:36:22;;;;;;;1999.90;999.90;;;;;;;5.38;100.00;102380.47;10458334;28;20115;-66
2023/01/26 20:41:26;;;;;;;1999.90;999.90;;;;;;;5.23;100.00;102383.25;10458035;28;20387;-66
2023/01/26 20:46:35;;;;;;;1999.90;999.90;;;;;;;5.14;100.00;102385.91;10456349;28;20060;-66
2023/01/26 20:51:41;;;;;;;1999.90;999.90;;;;;;;5.29;100.00;102387.50;10457783;28;20056;-66
2023/01/26 20:56:48;;;;;;;1999.90;999.90;;;;;;;5.42;100.00;102377.84;10456827;28;20550;-66
2023/01/26 21:01:51;;;;;;;1999.90;999.90;;;;;;;5.32;100.00;102375.34;10456855;28;20404;-66
2023/01/26 21:06:54;;;;;;;1999.90;999.90;;;;;;;5.28;100.00;102380.56;10456625;28;20095;-66
2023/01/26 21:11:56;;;;;;;1999.90;999.90;;;;;;;5.28;100.00;102383.16;10457115;28;20045;-66
2023/01/26 21:16:58;;;;;;;1999.90;999.90;;;;;;;5.20;100.00;102381.53;10456415;28;20053;-66
2023/01/26 21:22:01;;;;;;;1999.90;999.90;;;;;;;5.12;100.00;102378.13;10456871;28;20049;-66
2023/01/26 21:27:05;;;;;;;1999.90;999.90;;;;;;;4.97;100.00;102376.53;10456238;28;20061;-66
2023/01/26 21:32:07;;;;;;;1999.90;999.90;;;;;;;5.20;100.00;102365.09;10439061;28;20055;-66
2023/01/26 21:37:10;;;;;;;1999.90;999.90;;;;;;;5.09;100.00;102369.50;10456036;28;20550;-66
2023/01/26 21:42:12;;;;;;;1999.90;999.90;;;;;;;5.27;100.00;102373.69;10457006;28;20103;-66
2023/01/26 21:47:14;;;;;;;1999.90;999.90;;;;;;;5.37;100.00;102363.16;10438829;28;20049;-66
2023/01/26 22:02:59;;;;;;;1999.90;999.90;;;;;;;4.99;100.00;102369.63;10463581;28;20052;-66
2023/01/26 22:08:02;;;;;;;1999.90;999.90;;;;;;;5.05;100.00;102360.91;10463291;28;20053;-66
2023/01/26 22:13:04;;;;;;;1999.90;999.90;;;;;;;5.09;100.00;102364.31;10444465;28;20484;-66
2023/01/26 22:18:07;;;;;;;1999.90;999.90;;;;;;;5.03;100.00;102367.84;10444842;28;20049;-66
2023/01/26 22:23:10;;;;;;;1999.90;999.90;;;;;;;4.91;100.00;102363.63;10463448;28;20049;-66
2023/01/26 22:28:12;;;;;;;1999.90;999.90;;;;;;;4.92;100.00;102367.06;10463410;28;20048;-66
2023/01/26 22:33:14;;;;;;;1999.90;999.90;;;;;;;4.87;100.00;102368.84;10462560;28;20098;-66
2023/01/26 22:38:17;;;;;;;1999.90;999.90;;;;;;;4.88;100.00;102376.63;10462992;28;20091;-66
2023/01/26 22:43:20;;;;;;;1999.90;999.90;;;;;;;4.69;100.00;102378.50;10462056;28;20435;-66
2023/01/26 22:48:22;;;;;;;1999.90;999.90;;;;;;;4.67;100.00;102376.78;10462594;28;20045;-66
2023/01/26 22:53:25;;;;;;;1999.90;999.90;;;;;;;4.78;100.00;102377.56;10461441;28;20087;-66
2023/01/26 22:58:27;;;;;;;1999.90;999.90;;;;;;;4.78;100.00;102387.94;10462599;28;20056;-66
2023/01/26 23:03:29;;;;;;;1999.90;999.90;;;;;;;4.51;100.00;102389.03;10444266;28;20048;-66
2023/01/26 23:08:32;;;;;;;1999.90;999.90;;;;;;;4.72;100.00;102400.97;10460600;28;20052;-66